sensor_id;sensor_type;location;lat;lon;timestamp;temperature;humidity
55008;DHT22;40902;45.116;21.296;2023-03-11T00:00:45;333.10;2329.60
55008;DHT22;40902;45.116;21.296;2023-03-11T00:03:12;333.10;2329.60
55008;DHT22;40902;45.116;21.296;2023-03-11T00:05:40;333.10;2329.60
55008;DHT22;40902;45.116;21.296;2023-03-11T00:08:07;333.00;2329.60
55008;DHT22;40902;45.116;21.296;2023-03-11T00:10:36;333.00;2329.60
55008;DHT22;40902;45.116;21.296;2023-03-11T00:13:03;333.00;2329.60
55008;DHT22;40902;45.116;21.296;2023-03-11T00:15:29;333.00;2329.60
55008;DHT22;40902;45.116;21.296;2023-03-11T00:17:55;333.00;2329.60
55008;DHT22;40902;45.116;21.296;2023-03-11T00:22:53;333.10;2329.60
55008;DHT22;40902;45.116;21.296;2023-03-11T00:25:20;333.10;2329.60
55008;DHT22;40902;45.116;21.296;2023-03-11T00:27:46;333.10;2329.60
55008;DHT22;40902;45.116;21.296;2023-03-11T00:30:13;333.10;2329.60
55008;DHT22;40902;45.116;21.296;2023-03-11T00:32:39;333.10;2329.60
55008;DHT22;40902;45.116;21.296;2023-03-11T00:35:05;333.10;2329.60
55008;DHT22;40902;45.116;21.296;2023-03-11T00:37:31;333.10;2329.60
55008;DHT22;40902;45.116;21.296;2023-03-11T00:39:58;333.10;2329.60
55008;DHT22;40902;45.116;21.296;2023-03-11T00:42:24;333.10;2329.60
55008;DHT22;40902;45.116;21.296;2023-03-11T00:44:50;333.10;2329.60
55008;DHT22;40902;45.116;21.296;2023-03-11T00:47:15;333.10;2329.60
55008;DHT22;40902;45.116;21.296;2023-03-11T00:49:42;333.20;2329.60
55008;DHT22;40902;45.116;21.296;2023-03-11T00:52:07;333.10;2329.60
55008;DHT22;40902;45.116;21.296;2023-03-11T00:54:33;333.20;2329.60
55008;DHT22;40902;45.116;21.296;2023-03-11T00:56:59;333.10;2329.60
55008;DHT22;40902;45.116;21.296;2023-03-11T00:59:24;333.10;2329.60
55008;DHT22;40902;45.116;21.296;2023-03-11T01:01:50;333.10;2329.60
55008;DHT22;40902;45.116;21.296;2023-03-11T01:04:16;333.10;2329.60
55008;DHT22;40902;45.116;21.296;2023-03-11T01:06:42;333.10;2329.60
55008;DHT22;40902;45.116;21.296;2023-03-11T01:09:07;333.00;2329.60
55008;DHT22;40902;45.116;21.296;2023-03-11T01:11:33;333.00;2329.60
55008;DHT22;40902;45.116;21.296;2023-03-11T01:13:59;333.00;2329.60
55008;DHT22;40902;45.116;21.296;2023-03-11T01:16:25;333.00;2329.60
55008;DHT22;40902;45.116;21.296;2023-03-11T01:18:50;332.90;2329.60
55008;DHT22;40902;45.116;21.296;2023-03-11T01:21:16;332.80;2329.60
55008;DHT22;40902;45.116;21.296;2023-03-11T01:23:42;332.80;2329.60
55008;DHT22;40902;45.116;21.296;2023-03-11T01:26:07;332.80;2329.60
55008;DHT22;40902;45.116;21.296;2023-03-11T01:28:33;332.80;2329.60
55008;DHT22;40902;45.116;21.296;2023-03-11T01:30:59;308.10;2304.00
55008;DHT22;40902;45.116;21.296;2023-03-11T01:33:25;308.10;2304.00
55008;DHT22;40902;45.116;21.296;2023-03-11T01:35:51;308.10;2304.00
55008;DHT22;40902;45.116;21.296;2023-03-11T01:38:17;308.10;2304.00
55008;DHT22;40902;45.116;21.296;2023-03-11T01:40:45;308.10;2304.00
55008;DHT22;40902;45.116;21.296;2023-03-11T01:43:46;308.10;2304.00
55008;DHT22;40902;45.116;21.296;2023-03-11T01:48:38;308.10;2304.00
55008;DHT22;40902;45.116;21.296;2023-03-11T01:51:05;308.10;2304.00
55008;DHT22;40902;45.116;21.296;2023-03-11T01:53:32;308.10;2304.00
55008;DHT22;40902;45.116;21.296;2023-03-11T01:55:58;308.10;2304.00
55008;DHT22;40902;45.116;21.296;2023-03-11T01:58:27;308.10;2304.00
55008;DHT22;40902;45.116;21.296;2023-03-11T02:00:55;308.10;2304.00
55008;DHT22;40902;45.116;21.296;2023-03-11T02:03:42;308.10;2304.00
55008;DHT22;40902;45.116;21.296;2023-03-11T02:06:16;308.00;2304.00
55008;DHT22;40902;45.116;21.296;2023-03-11T02:08:43;308.10;2304.00
55008;DHT22;40902;45.116;21.296;2023-03-11T02:11:13;308.10;2304.00
55008;DHT22;40902;45.116;21.296;2023-03-11T02:13:40;308.10;2304.00
55008;DHT22;40902;45.116;21.296;2023-03-11T02:16:08;308.10;2304.00
55008;DHT22;40902;45.116;21.296;2023-03-11T02:18:35;308.00;2304.00
55008;DHT22;40902;45.116;21.296;2023-03-11T02:26:28;308.00;2304.00
55008;DHT22;40902;45.116;21.296;2023-03-11T02:28:57;307.90;2304.00
55008;DHT22;40902;45.116;21.296;2023-03-11T02:31:24;307.90;2304.00
55008;DHT22;40902;45.116;21.296;2023-03-11T02:33:52;308.00;2304.00
55008;DHT22;40902;45.116;21.296;2023-03-11T02:36:38;308.00;2304.00
55008;DHT22;40902;45.116;21.296;2023-03-11T02:39:05;308.00;2304.00
55008;DHT22;40902;45.116;21.296;2023-03-11T02:41:32;308.00;2304.00
55008;DHT22;40902;45.116;21.296;2023-03-11T02:43:59;308.00;2304.00
55008;DHT22;40902;45.116;21.296;2023-03-11T02:46:26;308.00;2304.00
55008;DHT22;40902;45.116;21.296;2023-03-11T02:48:53;307.90;2304.00
55008;DHT22;40902;45.116;21.296;2023-03-11T02:51:19;307.90;2304.00
55008;DHT22;40902;45.116;21.296;2023-03-11T02:53:48;307.90;2304.00
55008;DHT22;40902;45.116;21.296;2023-03-11T02:56:14;307.90;2304.00
55008;DHT22;40902;45.116;21.296;2023-03-11T02:58:40;307.80;2304.00
55008;DHT22;40902;45.116;21.296;2023-03-11T03:01:06;307.80;2304.00
55008;DHT22;40902;45.116;21.296;2023-03-11T03:03:32;307.80;2304.00
55008;DHT22;40902;45.116;21.296;2023-03-11T03:05:57;307.70;2304.00
55008;DHT22;40902;45.116;21.296;2023-03-11T03:08:23;307.60;2304.00
55008;DHT22;40902;45.116;21.296;2023-03-11T03:10:49;307.50;2304.00
55008;DHT22;40902;45.116;21.296;2023-03-11T03:13:14;307.50;2304.00
55008;DHT22;40902;45.116;21.296;2023-03-11T03:15:40;307.40;2304.00
55008;DHT22;40902;45.116;21.296;2023-03-11T03:18:06;307.30;2304.00
55008;DHT22;40902;45.116;21.296;2023-03-11T03:20:31;307.30;2304.00
55008;DHT22;40902;45.116;21.296;2023-03-11T03:22:57;307.20;2304.00
55008;DHT22;40902;45.116;21.296;2023-03-11T03:25:23;282.30;2278.40
55008;DHT22;40902;45.116;21.296;2023-03-11T03:27:48;282.50;2278.40
55008;DHT22;40902;45.116;21.296;2023-03-11T03:30:15;282.30;2278.40
55008;DHT22;40902;45.116;21.296;2023-03-11T03:32:41;282.10;2278.40
55008;DHT22;40902;45.116;21.296;2023-03-11T03:37:35;282.30;2278.40
55008;DHT22;40902;45.116;21.296;2023-03-11T03:40:02;282.00;2278.40
55008;DHT22;40902;45.116;21.296;2023-03-11T03:42:33;282.00;2278.40
55008;DHT22;40902;45.116;21.296;2023-03-11T03:44:59;282.00;2278.40
55008;DHT22;40902;45.116;21.296;2023-03-11T03:47:24;282.00;2278.40
55008;DHT22;40902;45.116;21.296;2023-03-11T03:49:50;282.20;2278.40
55008;DHT22;40902;45.116;21.296;2023-03-11T03:52:16;281.90;2278.40
55008;DHT22;40902;45.116;21.296;2023-03-11T03:54:41;281.90;2278.40
55008;DHT22;40902;45.116;21.296;2023-03-11T03:57:07;281.80;2278.40
55008;DHT22;40902;45.116;21.296;2023-03-11T03:59:33;281.90;2278.40
55008;DHT22;40902;45.116;21.296;2023-03-11T04:01:59;281.80;2278.40
55008;DHT22;40902;45.116;21.296;2023-03-11T04:04:25;281.90;2278.40
55008;DHT22;40902;45.116;21.296;2023-03-11T04:06:51;282.00;2278.40
55008;DHT22;40902;45.116;21.296;2023-03-11T04:09:17;282.00;2278.40
55008;DHT22;40902;45.116;21.296;2023-03-11T04:11:43;282.00;2278.40
55008;DHT22;40902;45.116;21.296;2023-03-11T04:14:08;282.00;2278.40
55008;DHT22;40902;45.116;21.296;2023-03-11T04:16:34;282.10;2278.40
55008;DHT22;40902;45.116;21.296;2023-03-11T04:19:00;282.30;2278.40
55008;DHT22;40902;45.116;21.296;2023-03-11T04:21:26;282.20;2278.40
55008;DHT22;40902;45.116;21.296;2023-03-11T04:23:51;282.10;2278.40
55008;DHT22;40902;45.116;21.296;2023-03-11T04:26:17;282.00;2278.40
55008;DHT22;40902;45.116;21.296;2023-03-11T04:28:43;282.10;2278.40
55008;DHT22;40902;45.116;21.296;2023-03-11T04:31:08;282.10;2278.40
55008;DHT22;40902;45.116;21.296;2023-03-11T04:33:34;282.10;2278.40
55008;DHT22;40902;45.116;21.296;2023-03-11T04:36:04;282.20;2278.40
55008;DHT22;40902;45.116;21.296;2023-03-11T04:38:30;282.20;2278.40
55008;DHT22;40902;45.116;21.296;2023-03-11T04:41:03;282.20;2278.40
55008;DHT22;40902;45.116;21.296;2023-03-11T04:43:30;282.20;2278.40
55008;DHT22;40902;45.116;21.296;2023-03-11T04:45:56;282.20;2278.40
55008;DHT22;40902;45.116;21.296;2023-03-11T04:48:21;282.30;2278.40
55008;DHT22;40902;45.116;21.296;2023-03-11T04:50:49;282.30;2278.40
55008;DHT22;40902;45.116;21.296;2023-03-11T04:53:15;282.30;2278.40
55008;DHT22;40902;45.116;21.296;2023-03-11T04:55:40;282.30;2278.40
55008;DHT22;40902;45.116;21.296;2023-03-11T04:58:06;282.30;2278.40
55008;DHT22;40902;45.116;21.296;2023-03-11T05:00:32;282.40;2278.40
55008;DHT22;40902;45.116;21.296;2023-03-11T05:02:57;282.40;2278.40
55008;DHT22;40902;45.116;21.296;2023-03-11T05:05:23;282.40;2278.40
55008;DHT22;40902;45.116;21.296;2023-03-11T05:07:49;282.40;2278.40
55008;DHT22;40902;45.116;21.296;2023-03-11T05:10:15;282.40;2278.40
55008;DHT22;40902;45.116;21.296;2023-03-11T05:12:50;282.40;2278.40
55008;DHT22;40902;45.116;21.296;2023-03-11T05:15:16;282.50;2278.40
55008;DHT22;40902;45.116;21.296;2023-03-11T05:17:42;282.50;2278.40
55008;DHT22;40902;45.116;21.296;2023-03-11T05:20:09;282.50;2278.40
55008;DHT22;40902;45.116;21.296;2023-03-11T05:22:35;282.50;2278.40
55008;DHT22;40902;45.116;21.296;2023-03-11T05:25:01;282.50;2278.40
55008;DHT22;40902;45.116;21.296;2023-03-11T05:27:27;307.20;2304.00
55008;DHT22;40902;45.116;21.296;2023-03-11T05:29:52;307.30;2304.00
55008;DHT22;40902;45.116;21.296;2023-03-11T05:32:18;307.30;2304.00
55008;DHT22;40902;45.116;21.296;2023-03-11T05:34:44;307.30;2304.00
55008;DHT22;40902;45.116;21.296;2023-03-11T05:37:10;307.30;2304.00
55008;DHT22;40902;45.116;21.296;2023-03-11T05:39:36;307.30;2304.00
55008;DHT22;40902;45.116;21.296;2023-03-11T05:42:03;307.30;2304.00
55008;DHT22;40902;45.116;21.296;2023-03-11T05:44:30;307.40;2304.00
55008;DHT22;40902;45.116;21.296;2023-03-11T05:46:55;307.50;2304.00
55008;DHT22;40902;45.116;21.296;2023-03-11T05:49:21;307.60;2304.00
55008;DHT22;40902;45.116;21.296;2023-03-11T05:51:48;307.70;2304.00
55008;DHT22;40902;45.116;21.296;2023-03-11T05:54:14;307.70;2304.00
55008;DHT22;40902;45.116;21.296;2023-03-11T05:56:42;307.80;2304.00
55008;DHT22;40902;45.116;21.296;2023-03-11T05:59:08;307.90;2304.00
55008;DHT22;40902;45.116;21.296;2023-03-11T06:01:34;307.90;2304.00
55008;DHT22;40902;45.116;21.296;2023-03-11T06:04:00;307.90;2304.00
55008;DHT22;40902;45.116;21.296;2023-03-11T06:06:26;308.00;2304.00
55008;DHT22;40902;45.116;21.296;2023-03-11T06:08:53;308.00;2304.00
55008;DHT22;40902;45.116;21.296;2023-03-11T06:11:19;307.80;2304.00
55008;DHT22;40902;45.116;21.296;2023-03-11T06:13:45;307.80;2304.00
55008;DHT22;40902;45.116;21.296;2023-03-11T06:16:11;307.70;2304.00
55008;DHT22;40902;45.116;21.296;2023-03-11T06:18:37;307.80;2304.00
55008;DHT22;40902;45.116;21.296;2023-03-11T06:21:03;307.60;2304.00
55008;DHT22;40902;45.116;21.296;2023-03-11T06:23:29;307.50;2304.00
55008;DHT22;40902;45.116;21.296;2023-03-11T06:26:00;307.40;2304.00
55008;DHT22;40902;45.116;21.296;2023-03-11T06:28:27;307.40;2304.00
55008;DHT22;40902;45.116;21.296;2023-03-11T06:30:53;307.40;2304.00
55008;DHT22;40902;45.116;21.296;2023-03-11T06:33:22;307.50;2304.00
55008;DHT22;40902;45.116;21.296;2023-03-11T06:35:58;307.50;2304.00
55008;DHT22;40902;45.116;21.296;2023-03-11T06:38:25;307.60;2304.00
55008;DHT22;40902;45.116;21.296;2023-03-11T06:40:51;307.50;2304.00
55008;DHT22;40902;45.116;21.296;2023-03-11T06:43:17;307.60;2304.00
55008;DHT22;40902;45.116;21.296;2023-03-11T06:45:43;307.60;2304.00
55008;DHT22;40902;45.116;21.296;2023-03-11T06:48:09;307.60;2304.00
55008;DHT22;40902;45.116;21.296;2023-03-11T06:50:35;307.60;2304.00
55008;DHT22;40902;45.116;21.296;2023-03-11T06:53:00;307.60;2304.00
55008;DHT22;40902;45.116;21.296;2023-03-11T06:55:27;307.60;2304.00
55008;DHT22;40902;45.116;21.296;2023-03-11T06:57:53;307.70;2304.00
55008;DHT22;40902;45.116;21.296;2023-03-11T07:00:19;307.70;2304.00
55008;DHT22;40902;45.116;21.296;2023-03-11T07:02:44;307.90;2304.00
55008;DHT22;40902;45.116;21.296;2023-03-11T07:05:10;307.90;2304.00
55008;DHT22;40902;45.116;21.296;2023-03-11T07:07:37;307.90;2304.00
55008;DHT22;40902;45.116;21.296;2023-03-11T07:10:03;307.90;2304.00
55008;DHT22;40902;45.116;21.296;2023-03-11T07:12:30;307.80;2304.00
55008;DHT22;40902;45.116;21.296;2023-03-11T07:14:56;308.00;2304.00
55008;DHT22;40902;45.116;21.296;2023-03-11T07:17:22;308.00;2304.00
55008;DHT22;40902;45.116;21.296;2023-03-11T07:19:49;308.00;2304.00
55008;DHT22;40902;45.116;21.296;2023-03-11T07:22:15;308.10;2304.00
55008;DHT22;40902;45.116;21.296;2023-03-11T07:24:44;332.80;2329.60
55008;DHT22;40902;45.116;21.296;2023-03-11T07:27:10;332.90;2329.60
55008;DHT22;40902;45.116;21.296;2023-03-11T07:29:36;333.00;2329.60
55008;DHT22;40902;45.116;21.296;2023-03-11T07:32:02;333.20;2329.60
55008;DHT22;40902;45.116;21.296;2023-03-11T07:34:28;333.30;2329.60
55008;DHT22;40902;45.116;21.296;2023-03-11T07:36:53;333.40;2329.60
55008;DHT22;40902;45.116;21.296;2023-03-11T07:39:19;333.70;2329.60
55008;DHT22;40902;45.116;21.296;2023-03-11T07:41:45;333.50;2329.60
55008;DHT22;40902;45.116;21.296;2023-03-11T07:44:13;333.50;2329.60
55008;DHT22;40902;45.116;21.296;2023-03-11T07:46:39;333.50;2329.60
55008;DHT22;40902;45.116;21.296;2023-03-11T07:49:04;333.40;2329.60
55008;DHT22;40902;45.116;21.296;2023-03-11T07:51:32;333.30;2329.60
55008;DHT22;40902;45.116;21.296;2023-03-11T07:53:59;333.30;2329.60
55008;DHT22;40902;45.116;21.296;2023-03-11T07:56:30;333.30;2329.60
55008;DHT22;40902;45.116;21.296;2023-03-11T07:58:58;333.40;2329.60
55008;DHT22;40902;45.116;21.296;2023-03-11T08:01:26;333.40;2329.60
55008;DHT22;40902;45.116;21.296;2023-03-11T08:03:53;333.50;2329.60
55008;DHT22;40902;45.116;21.296;2023-03-11T08:06:27;333.50;2329.60
55008;DHT22;40902;45.116;21.296;2023-03-11T08:08:59;333.40;2329.60
55008;DHT22;40902;45.116;21.296;2023-03-11T08:11:29;333.40;2329.60
55008;DHT22;40902;45.116;21.296;2023-03-11T08:13:55;333.20;2329.60
55008;DHT22;40902;45.116;21.296;2023-03-11T08:16:23;333.20;2329.60
55008;DHT22;40902;45.116;21.296;2023-03-11T08:18:49;333.20;2329.60
55008;DHT22;40902;45.116;21.296;2023-03-11T08:21:19;333.20;2329.60
55008;DHT22;40902;45.116;21.296;2023-03-11T08:23:45;333.00;2329.60
55008;DHT22;40902;45.116;21.296;2023-03-11T08:26:19;332.90;2329.60
55008;DHT22;40902;45.116;21.296;2023-03-11T08:28:46;308.10;2304.00
55008;DHT22;40902;45.116;21.296;2023-03-11T08:31:20;307.70;2304.00
55008;DHT22;40902;45.116;21.296;2023-03-11T08:33:48;282.50;2278.40
55008;DHT22;40902;45.116;21.296;2023-03-11T08:36:14;282.20;2278.40
55008;DHT22;40902;45.116;21.296;2023-03-11T08:38:41;282.00;2278.40
55008;DHT22;40902;45.116;21.296;2023-03-11T08:41:06;282.00;2278.40
55008;DHT22;40902;45.116;21.296;2023-03-11T08:43:33;282.00;2278.40
55008;DHT22;40902;45.116;21.296;2023-03-11T08:46:00;281.90;2278.40
55008;DHT22;40902;45.116;21.296;2023-03-11T08:48:26;282.00;2278.40
55008;DHT22;40902;45.116;21.296;2023-03-11T08:50:52;281.60;2278.40
55008;DHT22;40902;45.116;21.296;2023-03-11T08:53:18;256.70;2252.80
55008;DHT22;40902;45.116;21.296;2023-03-11T08:55:43;256.50;2252.80
55008;DHT22;40902;45.116;21.296;2023-03-11T08:58:09;256.30;2252.80
55008;DHT22;40902;45.116;21.296;2023-03-11T09:00:35;256.20;2252.80
55008;DHT22;40902;45.116;21.296;2023-03-11T09:03:00;256.40;2252.80
55008;DHT22;40902;45.116;21.296;2023-03-11T09:05:26;256.00;2252.80
55008;DHT22;40902;45.116;21.296;2023-03-11T09:07:54;231.30;2252.80
55008;DHT22;40902;45.116;21.296;2023-03-11T09:10:20;231.20;2252.80
55008;DHT22;40902;45.116;21.296;2023-03-11T09:12:46;231.10;2252.80
55008;DHT22;40902;45.116;21.296;2023-03-11T09:15:11;231.20;2252.80
55008;DHT22;40902;45.116;21.296;2023-03-11T09:17:37;231.10;2252.80
55008;DHT22;40902;45.116;21.296;2023-03-11T09:20:03;231.00;2252.80
55008;DHT22;40902;45.116;21.296;2023-03-11T09:22:29;231.00;2252.80
55008;DHT22;40902;45.116;21.296;2023-03-11T09:24:56;230.90;2252.80
55008;DHT22;40902;45.116;21.296;2023-03-11T09:27:22;230.90;2252.80
55008;DHT22;40902;45.116;21.296;2023-03-11T09:29:48;230.80;2252.80
55008;DHT22;40902;45.116;21.296;2023-03-11T09:32:14;230.80;2252.80
55008;DHT22;40902;45.116;21.296;2023-03-11T09:34:40;230.70;2252.80
55008;DHT22;40902;45.116;21.296;2023-03-11T09:37:06;230.60;2252.80
55008;DHT22;40902;45.116;21.296;2023-03-11T09:39:32;230.40;2252.80
55008;DHT22;40902;45.116;21.296;2023-03-11T09:42:09;230.40;2252.80
55008;DHT22;40902;45.116;21.296;2023-03-11T09:44:42;205.60;2252.80
55008;DHT22;40902;45.116;21.296;2023-03-11T10:08:37;230.40;2252.80
55008;DHT22;40902;45.116;21.296;2023-03-11T10:11:36;205.60;2252.80
55008;DHT22;40902;45.116;21.296;2023-03-11T10:14:51;205.50;2252.80
55008;DHT22;40902;45.116;21.296;2023-03-11T10:27:28;205.70;2252.80
55008;DHT22;40902;45.116;21.296;2023-03-11T10:32:43;230.40;2252.80
55008;DHT22;40902;45.116;21.296;2023-03-11T11:47:53;230.90;2252.80
55008;DHT22;40902;45.116;21.296;2023-03-11T11:50:31;230.60;2252.80
55008;DHT22;40902;45.116;21.296;2023-03-11T11:55:50;230.60;2252.80
55008;DHT22;40902;45.116;21.296;2023-03-11T11:58:20;230.60;2252.80
55008;DHT22;40902;45.116;21.296;2023-03-11T12:19:35;256.30;2252.80
55008;DHT22;40902;45.116;21.296;2023-03-11T12:25:00;231.30;2252.80
55008;DHT22;40902;45.116;21.296;2023-03-11T12:27:39;231.30;2252.80
55008;DHT22;40902;45.116;21.296;2023-03-11T12:30:16;231.20;2252.80
55008;DHT22;40902;45.116;21.296;2023-03-11T12:32:52;231.10;2252.80
55008;DHT22;40902;45.116;21.296;2023-03-11T13:07:09;230.90;2252.80
55008;DHT22;40902;45.116;21.296;2023-03-11T13:09:37;231.00;2252.80
55008;DHT22;40902;45.116;21.296;2023-03-11T13:25:38;230.70;2252.80
55008;DHT22;40902;45.116;21.296;2023-03-11T13:40:32;230.90;2252.80
55008;DHT22;40902;45.116;21.296;2023-03-11T13:55:38;231.30;2252.80
55008;DHT22;40902;45.116;21.296;2023-03-11T14:13:36;256.20;2252.80
55008;DHT22;40902;45.116;21.296;2023-03-11T14:16:18;231.30;2252.80
55008;DHT22;40902;45.116;21.296;2023-03-11T14:21:26;231.30;2252.80
55008;DHT22;40902;45.116;21.296;2023-03-11T14:23:54;231.10;2252.80
55008;DHT22;40902;45.116;21.296;2023-03-11T14:26:28;231.10;2252.80
55008;DHT22;40902;45.116;21.296;2023-03-11T14:28:57;231.10;2252.80
55008;DHT22;40902;45.116;21.296;2023-03-11T14:33:59;231.00;2227.20
55008;DHT22;40902;45.116;21.296;2023-03-11T14:36:30;231.10;2227.20
55008;DHT22;40902;45.116;21.296;2023-03-11T14:38:56;231.10;2201.60
55008;DHT22;40902;45.116;21.296;2023-03-11T14:41:22;231.10;2227.20
55008;DHT22;40902;45.116;21.296;2023-03-11T14:43:51;231.30;2176.00
55008;DHT22;40902;45.116;21.296;2023-03-11T14:46:22;256.00;2176.00
55008;DHT22;40902;45.116;21.296;2023-03-11T14:48:52;256.20;2227.20
55008;DHT22;40902;45.116;21.296;2023-03-11T14:51:24;256.10;2201.60
55008;DHT22;40902;45.116;21.296;2023-03-11T14:54:02;256.20;2252.80
55008;DHT22;40902;45.116;21.296;2023-03-11T14:56:35;256.10;2201.60
55008;DHT22;40902;45.116;21.296;2023-03-11T14:59:12;256.20;2150.40
55008;DHT22;40902;45.116;21.296;2023-03-11T15:01:41;256.10;2176.00
55008;DHT22;40902;45.116;21.296;2023-03-11T15:04:13;256.00;2150.40
55008;DHT22;40902;45.116;21.296;2023-03-11T15:06:42;256.10;2176.00
55008;DHT22;40902;45.116;21.296;2023-03-11T15:09:13;256.10;2099.20
55008;DHT22;40902;45.116;21.296;2023-03-11T15:11:48;256.10;2099.20
55008;DHT22;40902;45.116;21.296;2023-03-11T15:16:51;256.10;2124.80
55008;DHT22;40902;45.116;21.296;2023-03-11T15:19:43;256.10;2124.80
55008;DHT22;40902;45.116;21.296;2023-03-11T15:22:36;256.10;2124.80
55008;DHT22;40902;45.116;21.296;2023-03-11T15:25:03;256.30;2150.40
55008;DHT22;40902;45.116;21.296;2023-03-11T15:27:38;256.40;2150.40
55008;DHT22;40902;45.116;21.296;2023-03-11T15:32:46;256.60;2150.40
55008;DHT22;40902;45.116;21.296;2023-03-11T15:35:21;256.50;2176.00
55008;DHT22;40902;45.116;21.296;2023-03-11T15:37:49;256.50;2176.00
55008;DHT22;40902;45.116;21.296;2023-03-11T15:40:20;256.50;2201.60
55008;DHT22;40902;45.116;21.296;2023-03-11T15:42:47;256.50;2227.20
55008;DHT22;40902;45.116;21.296;2023-03-11T15:45:16;256.30;2150.40
55008;DHT22;40902;45.116;21.296;2023-03-11T15:47:43;256.30;2201.60
55008;DHT22;40902;45.116;21.296;2023-03-11T15:52:46;256.20;2176.00
55008;DHT22;40902;45.116;21.296;2023-03-11T15:55:13;256.20;2176.00
55008;DHT22;40902;45.116;21.296;2023-03-11T15:57:39;256.10;2227.20
55008;DHT22;40902;45.116;21.296;2023-03-11T16:00:22;256.20;2227.20
55008;DHT22;40902;45.116;21.296;2023-03-11T16:02:49;256.10;2227.20
55008;DHT22;40902;45.116;21.296;2023-03-11T16:05:20;256.00;2252.80
55008;DHT22;40902;45.116;21.296;2023-03-11T16:07:46;231.20;2252.80
55008;DHT22;40902;45.116;21.296;2023-03-11T16:10:15;231.00;2252.80
55008;DHT22;40902;45.116;21.296;2023-03-11T16:12:42;230.90;2252.80
55008;DHT22;40902;45.116;21.296;2023-03-11T16:15:32;230.70;2252.80
55008;DHT22;40902;45.116;21.296;2023-03-11T16:18:00;230.70;2252.80
55008;DHT22;40902;45.116;21.296;2023-03-11T16:22:55;230.80;2252.80
55008;DHT22;40902;45.116;21.296;2023-03-11T16:25:26;205.70;2252.80
55008;DHT22;40902;45.116;21.296;2023-03-11T16:30:21;205.70;2252.80
55008;DHT22;40902;45.116;21.296;2023-03-11T16:32:47;205.30;2252.80
55008;DHT22;40902;45.116;21.296;2023-03-11T16:35:13;205.40;2252.80
55008;DHT22;40902;45.116;21.296;2023-03-11T16:37:39;205.00;2252.80
55008;DHT22;40902;45.116;21.296;2023-03-11T16:40:11;204.90;2252.80
55008;DHT22;40902;45.116;21.296;2023-03-11T16:42:36;204.80;2252.80
55008;DHT22;40902;45.116;21.296;2023-03-11T16:45:02;180.10;2252.80
55008;DHT22;40902;45.116;21.296;2023-03-11T16:47:28;180.10;2252.80
55008;DHT22;40902;45.116;21.296;2023-03-11T16:49:54;180.00;2252.80
55008;DHT22;40902;45.116;21.296;2023-03-11T16:52:20;179.90;2252.80
55008;DHT22;40902;45.116;21.296;2023-03-11T16:54:47;179.90;2252.80
55008;DHT22;40902;45.116;21.296;2023-03-11T16:57:13;179.90;2252.80
55008;DHT22;40902;45.116;21.296;2023-03-11T16:59:39;180.00;2252.80
55008;DHT22;40902;45.116;21.296;2023-03-11T17:02:05;180.00;2252.80
55008;DHT22;40902;45.116;21.296;2023-03-11T17:04:30;179.90;2252.80
55008;DHT22;40902;45.116;21.296;2023-03-11T17:06:58;179.90;2252.80
55008;DHT22;40902;45.116;21.296;2023-03-11T17:09:23;179.80;2252.80
55008;DHT22;40902;45.116;21.296;2023-03-11T17:11:49;179.60;2252.80
55008;DHT22;40902;45.116;21.296;2023-03-11T17:14:16;179.60;2252.80
55008;DHT22;40902;45.116;21.296;2023-03-11T17:16:42;179.40;2252.80
55008;DHT22;40902;45.116;21.296;2023-03-11T17:19:08;179.40;2252.80
55008;DHT22;40902;45.116;21.296;2023-03-11T17:21:34;179.40;2252.80
55008;DHT22;40902;45.116;21.296;2023-03-11T17:23:59;179.30;2252.80
55008;DHT22;40902;45.116;21.296;2023-03-11T17:26:25;179.30;2252.80
55008;DHT22;40902;45.116;21.296;2023-03-11T17:28:52;179.30;2252.80
55008;DHT22;40902;45.116;21.296;2023-03-11T17:31:18;154.50;2252.80
55008;DHT22;40902;45.116;21.296;2023-03-11T17:33:44;154.50;2252.80
55008;DHT22;40902;45.116;21.296;2023-03-11T17:36:13;154.40;2252.80
55008;DHT22;40902;45.116;21.296;2023-03-11T17:38:40;154.40;2252.80
55008;DHT22;40902;45.116;21.296;2023-03-11T17:41:07;154.40;2252.80
55008;DHT22;40902;45.116;21.296;2023-03-11T17:43:33;154.30;2252.80
55008;DHT22;40902;45.116;21.296;2023-03-11T17:45:59;154.20;2252.80
55008;DHT22;40902;45.116;21.296;2023-03-11T17:48:25;154.20;2252.80
55008;DHT22;40902;45.116;21.296;2023-03-11T17:50:52;154.10;2252.80
55008;DHT22;40902;45.116;21.296;2023-03-11T17:53:18;154.10;2252.80
55008;DHT22;40902;45.116;21.296;2023-03-11T17:55:44;154.10;2252.80
55008;DHT22;40902;45.116;21.296;2023-03-11T17:58:09;154.00;2252.80
55008;DHT22;40902;45.116;21.296;2023-03-11T18:00:35;153.90;2252.80
55008;DHT22;40902;45.116;21.296;2023-03-11T18:03:01;153.90;2252.80
55008;DHT22;40902;45.116;21.296;2023-03-11T18:05:27;153.80;2252.80
55008;DHT22;40902;45.116;21.296;2023-03-11T18:07:52;153.80;2252.80
55008;DHT22;40902;45.116;21.296;2023-03-11T18:10:18;153.80;2252.80
55008;DHT22;40902;45.116;21.296;2023-03-11T18:12:45;153.70;2252.80
55008;DHT22;40902;45.116;21.296;2023-03-11T18:15:12;153.60;2252.80
55008;DHT22;40902;45.116;21.296;2023-03-11T18:17:47;153.60;2252.80
55008;DHT22;40902;45.116;21.296;2023-03-11T18:20:14;153.60;2252.80
55008;DHT22;40902;45.116;21.296;2023-03-11T18:22:41;128.90;2252.80
55008;DHT22;40902;45.116;21.296;2023-03-11T18:25:07;153.60;2252.80
55008;DHT22;40902;45.116;21.296;2023-03-11T18:27:35;153.60;2252.80
55008;DHT22;40902;45.116;21.296;2023-03-11T18:30:05;153.60;2252.80
55008;DHT22;40902;45.116;21.296;2023-03-11T18:32:33;153.70;2252.80
55008;DHT22;40902;45.116;21.296;2023-03-11T18:34:58;153.60;2252.80
55008;DHT22;40902;45.116;21.296;2023-03-11T18:37:25;153.60;2252.80
55008;DHT22;40902;45.116;21.296;2023-03-11T18:39:50;153.60;2252.80
55008;DHT22;40902;45.116;21.296;2023-03-11T18:42:16;128.90;2252.80
55008;DHT22;40902;45.116;21.296;2023-03-11T18:44:42;153.60;2252.80
55008;DHT22;40902;45.116;21.296;2023-03-11T18:47:08;153.60;2252.80